sensor_id;sensor_type;location;lat;lon;timestamp;P1;durP1;ratioP1;P2;durP2;ratioP2
16854;SDS011;8543;54.522;18.550;2022-09-12T00:01:49;5.70;;;2.90;;
16854;SDS011;8543;54.522;18.550;2022-09-12T00:04:15;4.70;;;2.70;;
16854;SDS011;8543;54.522;18.550;2022-09-12T00:06:40;5.60;;;2.50;;
16854;SDS011;8543;54.522;18.550;2022-09-12T00:09:07;7.30;;;2.80;;
16854;SDS011;8543;54.522;18.550;2022-09-12T00:11:35;6.00;;;2.30;;
16854;SDS011;8543;54.522;18.550;2022-09-12T00:14:02;5.20;;;2.60;;
16854;SDS011;8543;54.522;18.550;2022-09-12T00:16:31;5.70;;;2.50;;
16854;SDS011;8543;54.522;18.550;2022-09-12T00:18:58;5.60;;;2.70;;
16854;SDS011;8543;54.522;18.550;2022-09-12T00:21:24;5.50;;;2.80;;
16854;SDS011;8543;54.522;18.550;2022-09-12T00:23:50;5.10;;;2.50;;
16854;SDS011;8543;54.522;18.550;2022-09-12T00:26:16;5.10;;;2.70;;
16854;SDS011;8543;54.522;18.550;2022-09-12T00:28:43;5.80;;;2.20;;
16854;SDS011;8543;54.522;18.550;2022-09-12T00:31:10;5.50;;;2.50;;
16854;SDS011;8543;54.522;18.550;2022-09-12T00:33:37;7.80;;;3.90;;
16854;SDS011;8543;54.522;18.550;2022-09-12T00:36:04;5.70;;;2.40;;
16854;SDS011;8543;54.522;18.550;2022-09-12T00:38:31;5.60;;;2.50;;
16854;SDS011;8543;54.522;18.550;2022-09-12T00:40:58;5.30;;;2.50;;
16854;SDS011;8543;54.522;18.550;2022-09-12T00:45:57;5.80;;;2.50;;
16854;SDS011;8543;54.522;18.550;2022-09-12T00:48:28;5.10;;;2.60;;
16854;SDS011;8543;54.522;18.550;2022-09-12T00:50:57;5.80;;;2.70;;
16854;SDS011;8543;54.522;18.550;2022-09-12T00:53:23;3.60;;;2.30;;
16854;SDS011;8543;54.522;18.550;2022-09-12T00:55:49;4.90;;;2.30;;
16854;SDS011;8543;54.522;18.550;2022-09-12T00:58:16;4.80;;;2.50;;
16854;SDS011;8543;54.522;18.550;2022-09-12T01:00:53;4.50;;;2.10;;
16854;SDS011;8543;54.522;18.550;2022-09-12T01:03:19;4.50;;;2.50;;
16854;SDS011;8543;54.522;18.550;2022-09-12T01:06:09;7.10;;;2.90;;
16854;SDS011;8543;54.522;18.550;2022-09-12T01:08:34;5.70;;;2.60;;
16854;SDS011;8543;54.522;18.550;2022-09-12T01:11:01;3.20;;;2.20;;
16854;SDS011;8543;54.522;18.550;2022-09-12T01:13:28;5.50;;;2.60;;
16854;SDS011;8543;54.522;18.550;2022-09-12T01:15:54;5.10;;;2.60;;
16854;SDS011;8543;54.522;18.550;2022-09-12T01:32:12;5.30;;;2.40;;
16854;SDS011;8543;54.522;18.550;2022-09-12T01:35:10;6.20;;;2.60;;
16854;SDS011;8543;54.522;18.550;2022-09-12T01:37:52;6.30;;;2.40;;
16854;SDS011;8543;54.522;18.550;2022-09-12T01:40:30;4.60;;;2.40;;
16854;SDS011;8543;54.522;18.550;2022-09-12T01:46:11;4.10;;;2.00;;
16854;SDS011;8543;54.522;18.550;2022-09-12T01:48:47;5.90;;;2.40;;
16854;SDS011;8543;54.522;18.550;2022-09-12T01:51:25;4.50;;;2.40;;
16854;SDS011;8543;54.522;18.550;2022-09-12T01:54:01;4.90;;;2.40;;
16854;SDS011;8543;54.522;18.550;2022-09-12T01:56:34;5.60;;;2.60;;
16854;SDS011;8543;54.522;18.550;2022-09-12T01:59:12;4.10;;;2.50;;
16854;SDS011;8543;54.522;18.550;2022-09-12T02:01:50;4.90;;;2.30;;
16854;SDS011;8543;54.522;18.550;2022-09-12T02:04:40;4.90;;;2.30;;
16854;SDS011;8543;54.522;18.550;2022-09-12T02:07:13;3.50;;;2.10;;
16854;SDS011;8543;54.522;18.550;2022-09-12T02:09:45;5.20;;;2.70;;
16854;SDS011;8543;54.522;18.550;2022-09-12T02:12:15;4.80;;;2.20;;
16854;SDS011;8543;54.522;18.550;2022-09-12T02:14:45;5.00;;;2.40;;
16854;SDS011;8543;54.522;18.550;2022-09-12T02:17:24;5.30;;;2.70;;
16854;SDS011;8543;54.522;18.550;2022-09-12T02:20:08;4.50;;;2.70;;
16854;SDS011;8543;54.522;18.550;2022-09-12T02:22:38;8.10;;;2.90;;
16854;SDS011;8543;54.522;18.550;2022-09-12T02:25:05;6.50;;;2.60;;
16854;SDS011;8543;54.522;18.550;2022-09-12T02:27:42;5.00;;;2.50;;
16854;SDS011;8543;54.522;18.550;2022-09-12T02:30:10;3.70;;;2.20;;
16854;SDS011;8543;54.522;18.550;2022-09-12T02:32:51;5.90;;;2.50;;
16854;SDS011;8543;54.522;18.550;2022-09-12T02:40:22;4.40;;;2.70;;
16854;SDS011;8543;54.522;18.550;2022-09-12T02:42:48;4.50;;;2.50;;
16854;SDS011;8543;54.522;18.550;2022-09-12T02:45:14;3.60;;;2.00;;
16854;SDS011;8543;54.522;18.550;2022-09-12T02:47:42;5.00;;;2.50;;
16854;SDS011;8543;54.522;18.550;2022-09-12T02:50:09;6.30;;;2.50;;
16854;SDS011;8543;54.522;18.550;2022-09-12T02:52:35;6.20;;;2.50;;
16854;SDS011;8543;54.522;18.550;2022-09-12T02:55:00;4.60;;;2.40;;
16854;SDS011;8543;54.522;18.550;2022-09-12T02:57:27;5.70;;;2.60;;
16854;SDS011;8543;54.522;18.550;2022-09-12T02:59:55;5.60;;;2.30;;
16854;SDS011;8543;54.522;18.550;2022-09-12T03:08:28;4.50;;;2.40;;
16854;SDS011;8543;54.522;18.550;2022-09-12T03:21:53;3.90;;;2.10;;
16854;SDS011;8543;54.522;18.550;2022-09-12T03:24:33;7.70;;;2.50;;
16854;SDS011;8543;54.522;18.550;2022-09-12T03:29:38;5.20;;;2.60;;
16854;SDS011;8543;54.522;18.550;2022-09-12T03:32:04;4.80;;;2.50;;
16854;SDS011;8543;54.522;18.550;2022-09-12T03:34:29;5.10;;;2.60;;
16854;SDS011;8543;54.522;18.550;2022-09-12T03:36:55;4.50;;;2.40;;
16854;SDS011;8543;54.522;18.550;2022-09-12T03:39:21;5.70;;;2.40;;
16854;SDS011;8543;54.522;18.550;2022-09-12T03:41:48;5.50;;;2.40;;
16854;SDS011;8543;54.522;18.550;2022-09-12T03:44:14;4.60;;;2.60;;
16854;SDS011;8543;54.522;18.550;2022-09-12T03:46:40;5.50;;;2.30;;
16854;SDS011;8543;54.522;18.550;2022-09-12T03:49:05;5.10;;;2.50;;
16854;SDS011;8543;54.522;18.550;2022-09-12T03:51:31;5.40;;;2.40;;
16854;SDS011;8543;54.522;18.550;2022-09-12T03:53:56;6.20;;;2.50;;
16854;SDS011;8543;54.522;18.550;2022-09-12T03:56:22;3.80;;;2.30;;
16854;SDS011;8543;54.522;18.550;2022-09-12T03:58:47;6.60;;;2.40;;
16854;SDS011;8543;54.522;18.550;2022-09-12T04:01:14;2.90;;;2.10;;
16854;SDS011;8543;54.522;18.550;2022-09-12T04:03:45;6.80;;;2.70;;
16854;SDS011;8543;54.522;18.550;2022-09-12T04:06:13;5.00;;;2.50;;
16854;SDS011;8543;54.522;18.550;2022-09-12T04:08:40;6.00;;;2.40;;
16854;SDS011;8543;54.522;18.550;2022-09-12T04:11:11;5.40;;;1.80;;
16854;SDS011;8543;54.522;18.550;2022-09-12T04:13:38;7.00;;;2.40;;
16854;SDS011;8543;54.522;18.550;2022-09-12T04:16:05;3.50;;;2.30;;
16854;SDS011;8543;54.522;18.550;2022-09-12T04:18:31;5.30;;;2.40;;
16854;SDS011;8543;54.522;18.550;2022-09-12T04:20:57;3.90;;;2.40;;
16854;SDS011;8543;54.522;18.550;2022-09-12T04:23:22;7.10;;;2.30;;
16854;SDS011;8543;54.522;18.550;2022-09-12T04:25:52;4.30;;;2.40;;
16854;SDS011;8543;54.522;18.550;2022-09-12T04:28:21;5.50;;;2.50;;
16854;SDS011;8543;54.522;18.550;2022-09-12T04:30:47;5.30;;;2.50;;
16854;SDS011;8543;54.522;18.550;2022-09-12T04:33:12;5.90;;;2.70;;
16854;SDS011;8543;54.522;18.550;2022-09-12T04:35:38;5.00;;;2.70;;
16854;SDS011;8543;54.522;18.550;2022-09-12T04:38:03;5.30;;;2.50;;
16854;SDS011;8543;54.522;18.550;2022-09-12T04:40:29;4.70;;;2.20;;
16854;SDS011;8543;54.522;18.550;2022-09-12T04:42:55;8.90;;;2.50;;
16854;SDS011;8543;54.522;18.550;2022-09-12T04:45:21;4.50;;;2.30;;
16854;SDS011;8543;54.522;18.550;2022-09-12T04:47:46;6.30;;;2.50;;
16854;SDS011;8543;54.522;18.550;2022-09-12T04:50:13;5.90;;;2.60;;
16854;SDS011;8543;54.522;18.550;2022-09-12T04:52:39;4.70;;;2.30;;
16854;SDS011;8543;54.522;18.550;2022-09-12T04:55:05;3.60;;;2.40;;
16854;SDS011;8543;54.522;18.550;2022-09-12T04:57:31;6.30;;;2.50;;
16854;SDS011;8543;54.522;18.550;2022-09-12T04:59:56;4.40;;;2.40;;
16854;SDS011;8543;54.522;18.550;2022-09-12T05:02:23;3.60;;;2.10;;
16854;SDS011;8543;54.522;18.550;2022-09-12T05:04:48;5.70;;;2.50;;
16854;SDS011;8543;54.522;18.550;2022-09-12T05:07:14;5.90;;;2.60;;
16854;SDS011;8543;54.522;18.550;2022-09-12T05:09:39;3.40;;;2.30;;
16854;SDS011;8543;54.522;18.550;2022-09-12T05:12:05;5.80;;;2.50;;
16854;SDS011;8543;54.522;18.550;2022-09-12T05:14:31;6.50;;;2.70;;
16854;SDS011;8543;54.522;18.550;2022-09-12T05:16:58;6.60;;;2.60;;
16854;SDS011;8543;54.522;18.550;2022-09-12T05:19:25;7.30;;;3.00;;
16854;SDS011;8543;54.522;18.550;2022-09-12T05:21:51;4.10;;;2.60;;
16854;SDS011;8543;54.522;18.550;2022-09-12T05:24:16;6.70;;;2.70;;
16854;SDS011;8543;54.522;18.550;2022-09-12T05:26:42;5.40;;;2.70;;
16854;SDS011;8543;54.522;18.550;2022-09-12T05:29:08;8.50;;;2.80;;
16854;SDS011;8543;54.522;18.550;2022-09-12T05:31:33;4.80;;;2.60;;
16854;SDS011;8543;54.522;18.550;2022-09-12T05:33:59;8.80;;;3.00;;
16854;SDS011;8543;54.522;18.550;2022-09-12T05:36:25;9.70;;;3.00;;
16854;SDS011;8543;54.522;18.550;2022-09-12T05:38:52;8.70;;;3.10;;
16854;SDS011;8543;54.522;18.550;2022-09-12T05:41:19;10.30;;;3.60;;
16854;SDS011;8543;54.522;18.550;2022-09-12T05:43:45;9.50;;;3.40;;
16854;SDS011;8543;54.522;18.550;2022-09-12T05:46:13;9.50;;;3.40;;
16854;SDS011;8543;54.522;18.550;2022-09-12T05:48:41;6.40;;;3.10;;
16854;SDS011;8543;54.522;18.550;2022-09-12T05:51:11;9.70;;;3.40;;
16854;SDS011;8543;54.522;18.550;2022-09-12T05:53:48;7.50;;;3.40;;
16854;SDS011;8543;54.522;18.550;2022-09-12T05:56:19;7.60;;;3.30;;
16854;SDS011;8543;54.522;18.550;2022-09-12T05:58:54;9.40;;;3.80;;
16854;SDS011;8543;54.522;18.550;2022-09-12T06:01:27;9.80;;;3.10;;
16854;SDS011;8543;54.522;18.550;2022-09-12T06:03:54;12.90;;;3.70;;
16854;SDS011;8543;54.522;18.550;2022-09-12T06:06:22;12.80;;;3.80;;
16854;SDS011;8543;54.522;18.550;2022-09-12T06:08:50;11.80;;;4.10;;
16854;SDS011;8543;54.522;18.550;2022-09-12T06:11:20;12.00;;;3.60;;
16854;SDS011;8543;54.522;18.550;2022-09-12T06:13:47;7.10;;;3.20;;
16854;SDS011;8543;54.522;18.550;2022-09-12T06:16:17;11.00;;;4.10;;
16854;SDS011;8543;54.522;18.550;2022-09-12T06:18:47;7.30;;;3.10;;
16854;SDS011;8543;54.522;18.550;2022-09-12T06:21:14;8.40;;;3.20;;
16854;SDS011;8543;54.522;18.550;2022-09-12T06:23:40;10.30;;;4.00;;
16854;SDS011;8543;54.522;18.550;2022-09-12T06:26:06;6.70;;;3.50;;
16854;SDS011;8543;54.522;18.550;2022-09-12T06:28:35;8.30;;;3.60;;
16854;SDS011;8543;54.522;18.550;2022-09-12T06:31:08;12.50;;;3.90;;
16854;SDS011;8543;54.522;18.550;2022-09-12T06:33:36;8.50;;;3.90;;
16854;SDS011;8543;54.522;18.550;2022-09-12T06:36:03;7.70;;;3.70;;
16854;SDS011;8543;54.522;18.550;2022-09-12T06:38:36;8.40;;;3.60;;
16854;SDS011;8543;54.522;18.550;2022-09-12T06:41:06;7.60;;;3.60;;
16854;SDS011;8543;54.522;18.550;2022-09-12T06:43:33;7.50;;;3.80;;
16854;SDS011;8543;54.522;18.550;2022-09-12T06:45:58;8.70;;;4.00;;
16854;SDS011;8543;54.522;18.550;2022-09-12T06:48:24;8.40;;;4.00;;
16854;SDS011;8543;54.522;18.550;2022-09-12T06:51:00;8.40;;;3.90;;
16854;SDS011;8543;54.522;18.550;2022-09-12T06:53:31;6.50;;;3.40;;
16854;SDS011;8543;54.522;18.550;2022-09-12T06:56:01;7.50;;;3.50;;
16854;SDS011;8543;54.522;18.550;2022-09-12T06:58:31;8.50;;;3.90;;
16854;SDS011;8543;54.522;18.550;2022-09-12T07:01:05;8.40;;;3.50;;
16854;SDS011;8543;54.522;18.550;2022-09-12T07:03:32;5.70;;;3.60;;
16854;SDS011;8543;54.522;18.550;2022-09-12T07:06:05;6.90;;;3.40;;
16854;SDS011;8543;54.522;18.550;2022-09-12T07:08:33;6.90;;;3.70;;
16854;SDS011;8543;54.522;18.550;2022-09-12T07:11:06;6.80;;;3.60;;
16854;SDS011;8543;54.522;18.550;2022-09-12T07:13:35;8.10;;;3.90;;
16854;SDS011;8543;54.522;18.550;2022-09-12T07:16:02;7.60;;;3.40;;
16854;SDS011;8543;54.522;18.550;2022-09-12T07:18:28;8.00;;;3.80;;
16854;SDS011;8543;54.522;18.550;2022-09-12T07:20:53;7.30;;;3.90;;
16854;SDS011;8543;54.522;18.550;2022-09-12T07:23:19;7.00;;;3.60;;
16854;SDS011;8543;54.522;18.550;2022-09-12T07:25:51;7.50;;;3.80;;
16854;SDS011;8543;54.522;18.550;2022-09-12T07:28:17;7.30;;;4.10;;
16854;SDS011;8543;54.522;18.550;2022-09-12T07:30:43;5.60;;;4.20;;
16854;SDS011;8543;54.522;18.550;2022-09-12T07:33:08;9.90;;;3.90;;
16854;SDS011;8543;54.522;18.550;2022-09-12T07:35:33;9.00;;;4.00;;
16854;SDS011;8543;54.522;18.550;2022-09-12T07:37:59;6.20;;;3.40;;
16854;SDS011;8543;54.522;18.550;2022-09-12T07:40:24;6.10;;;3.50;;
16854;SDS011;8543;54.522;18.550;2022-09-12T07:42:50;6.90;;;3.70;;
16854;SDS011;8543;54.522;18.550;2022-09-12T07:45:15;6.80;;;3.80;;
16854;SDS011;8543;54.522;18.550;2022-09-12T07:47:40;10.00;;;3.80;;
16854;SDS011;8543;54.522;18.550;2022-09-12T07:50:06;4.90;;;3.20;;
16854;SDS011;8543;54.522;18.550;2022-09-12T07:52:31;9.10;;;3.50;;
16854;SDS011;8543;54.522;18.550;2022-09-12T07:54:56;7.60;;;3.60;;
16854;SDS011;8543;54.522;18.550;2022-09-12T07:57:22;5.70;;;3.10;;
16854;SDS011;8543;54.522;18.550;2022-09-12T07:59:48;3.80;;;2.30;;
16854;SDS011;8543;54.522;18.550;2022-09-12T08:02:14;3.60;;;2.10;;
16854;SDS011;8543;54.522;18.550;2022-09-12T08:04:39;3.90;;;2.60;;
16854;SDS011;8543;54.522;18.550;2022-09-12T08:07:06;3.80;;;2.40;;
16854;SDS011;8543;54.522;18.550;2022-09-12T08:09:32;3.50;;;2.50;;
16854;SDS011;8543;54.522;18.550;2022-09-12T08:11:58;4.20;;;2.40;;
16854;SDS011;8543;54.522;18.550;2022-09-12T08:14:23;4.10;;;2.30;;
16854;SDS011;8543;54.522;18.550;2022-09-12T08:16:49;2.90;;;2.10;;
16854;SDS011;8543;54.522;18.550;2022-09-12T08:19:15;5.10;;;2.40;;
16854;SDS011;8543;54.522;18.550;2022-09-12T08:21:40;6.40;;;2.30;;
16854;SDS011;8543;54.522;18.550;2022-09-12T08:24:05;3.50;;;2.10;;
16854;SDS011;8543;54.522;18.550;2022-09-12T08:26:31;3.10;;;1.90;;
16854;SDS011;8543;54.522;18.550;2022-09-12T08:28:58;3.60;;;2.00;;
16854;SDS011;8543;54.522;18.550;2022-09-12T08:31:25;3.50;;;2.00;;
16854;SDS011;8543;54.522;18.550;2022-09-12T08:33:51;6.00;;;3.40;;
16854;SDS011;8543;54.522;18.550;2022-09-12T08:36:19;4.00;;;2.30;;
16854;SDS011;8543;54.522;18.550;2022-09-12T08:38:47;2.80;;;1.70;;
16854;SDS011;8543;54.522;18.550;2022-09-12T08:43:55;3.40;;;2.00;;
16854;SDS011;8543;54.522;18.550;2022-09-12T08:49:37;2.90;;;1.60;;
16854;SDS011;8543;54.522;18.550;2022-09-12T08:52:04;3.10;;;1.70;;
16854;SDS011;8543;54.522;18.550;2022-09-12T08:54:33;4.60;;;2.10;;
16854;SDS011;8543;54.522;18.550;2022-09-12T08:57:03;2.80;;;1.70;;
16854;SDS011;8543;54.522;18.550;2022-09-12T08:59:30;3.90;;;2.00;;
16854;SDS011;8543;54.522;18.550;2022-09-12T09:02:01;3.60;;;1.80;;
16854;SDS011;8543;54.522;18.550;2022-09-12T09:04:34;5.70;;;2.00;;
16854;SDS011;8543;54.522;18.550;2022-09-12T09:07:41;3.10;;;1.70;;
16854;SDS011;8543;54.522;18.550;2022-09-12T09:12:47;3.40;;;1.70;;
16854;SDS011;8543;54.522;18.550;2022-09-12T09:15:25;2.50;;;1.60;;
16854;SDS011;8543;54.522;18.550;2022-09-12T09:18:17;6.30;;;3.70;;
16854;SDS011;8543;54.522;18.550;2022-09-12T09:20:50;4.00;;;2.50;;
16854;SDS011;8543;54.522;18.550;2022-09-12T09:23:23;4.00;;;2.10;;
16854;SDS011;8543;54.522;18.550;2022-09-12T09:25:55;5.70;;;2.00;;
16854;SDS011;8543;54.522;18.550;2022-09-12T09:31:01;3.40;;;2.10;;
16854;SDS011;8543;54.522;18.550;2022-09-12T09:33:27;4.80;;;2.00;;
16854;SDS011;8543;54.522;18.550;2022-09-12T09:38:45;3.50;;;1.80;;
16854;SDS011;8543;54.522;18.550;2022-09-12T09:43:50;4.80;;;1.90;;
16854;SDS011;8543;54.522;18.550;2022-09-12T09:46:16;3.10;;;1.90;;
16854;SDS011;8543;54.522;18.550;2022-09-12T09:48:46;4.10;;;1.70;;
16854;SDS011;8543;54.522;18.550;2022-09-12T09:51:13;6.50;;;2.10;;
16854;SDS011;8543;54.522;18.550;2022-09-12T09:53:43;7.20;;;2.10;;
16854;SDS011;8543;54.522;18.550;2022-09-12T09:56:14;7.10;;;2.00;;
16854;SDS011;8543;54.522;18.550;2022-09-12T09:58:50;3.00;;;1.70;;
16854;SDS011;8543;54.522;18.550;2022-09-12T10:01:16;3.00;;;1.50;;
16854;SDS011;8543;54.522;18.550;2022-09-12T10:03:59;3.80;;;1.70;;
16854;SDS011;8543;54.522;18.550;2022-09-12T10:06:28;4.50;;;1.70;;
16854;SDS011;8543;54.522;18.550;2022-09-12T10:09:03;6.00;;;2.00;;
16854;SDS011;8543;54.522;18.550;2022-09-12T10:11:41;2.60;;;1.60;;
16854;SDS011;8543;54.522;18.550;2022-09-12T10:14:22;4.40;;;2.10;;
16854;SDS011;8543;54.522;18.550;2022-09-12T10:16:59;4.00;;;2.00;;
16854;SDS011;8543;54.522;18.550;2022-09-12T10:19:38;4.10;;;1.80;;
16854;SDS011;8543;54.522;18.550;2022-09-12T10:22:04;6.40;;;2.20;;
16854;SDS011;8543;54.522;18.550;2022-09-12T10:27:13;5.40;;;1.60;;
16854;SDS011;8543;54.522;18.550;2022-09-12T10:29:54;3.70;;;1.90;;
16854;SDS011;8543;54.522;18.550;2022-09-12T10:32:41;6.80;;;1.90;;
16854;SDS011;8543;54.522;18.550;2022-09-12T10:40:25;5.00;;;2.10;;
16854;SDS011;8543;54.522;18.550;2022-09-12T10:42:53;6.40;;;2.10;;
16854;SDS011;8543;54.522;18.550;2022-09-12T10:45:35;8.20;;;1.80;;
16854;SDS011;8543;54.522;18.550;2022-09-12T10:48:47;4.50;;;2.10;;
16854;SDS011;8543;54.522;18.550;2022-09-12T10:50:59;5.90;;;1.90;;
16854;SDS011;8543;54.522;18.550;2022-09-12T10:53:26;6.80;;;1.90;;
16854;SDS011;8543;54.522;18.550;2022-09-12T10:58:33;3.60;;;2.00;;
16854;SDS011;8543;54.522;18.550;2022-09-12T11:01:13;2.90;;;1.80;;
16854;SDS011;8543;54.522;18.550;2022-09-12T11:03:53;7.40;;;1.90;;
16854;SDS011;8543;54.522;18.550;2022-09-12T11:07:05;6.00;;;2.10;;
16854;SDS011;8543;54.522;18.550;2022-09-12T11:12:46;8.90;;;2.10;;
16854;SDS011;8543;54.522;18.550;2022-09-12T11:25:38;9.10;;;1.80;;
16854;SDS011;8543;54.522;18.550;2022-09-12T11:41:38;7.50;;;1.90;;
16854;SDS011;8543;54.522;18.550;2022-09-12T11:44:14;6.40;;;2.20;;
16854;SDS011;8543;54.522;18.550;2022-09-12T11:46:44;6.80;;;2.70;;
16854;SDS011;8543;54.522;18.550;2022-09-12T11:51:49;7.20;;;1.80;;
16854;SDS011;8543;54.522;18.550;2022-09-12T11:54:31;5.70;;;2.20;;
16854;SDS011;8543;54.522;18.550;2022-09-12T12:02:28;4.50;;;2.00;;
16854;SDS011;8543;54.522;18.550;2022-09-12T12:07:54;5.30;;;2.40;;
16854;SDS011;8543;54.522;18.550;2022-09-12T12:10:40;4.40;;;2.00;;
16854;SDS011;8543;54.522;18.550;2022-09-12T12:15:53;6.20;;;2.00;;
16854;SDS011;8543;54.522;18.550;2022-09-12T12:18:24;7.60;;;2.20;;
16854;SDS011;8543;54.522;18.550;2022-09-12T12:20:52;3.10;;;1.70;;
16854;SDS011;8543;54.522;18.550;2022-09-12T12:23:28;6.90;;;2.20;;
16854;SDS011;8543;54.522;18.550;2022-09-12T12:26:02;6.40;;;1.90;;
16854;SDS011;8543;54.522;18.550;2022-09-12T12:31:06;6.10;;;2.20;;
16854;SDS011;8543;54.522;18.550;2022-09-12T12:38:33;6.20;;;2.10;;
16854;SDS011;8543;54.522;18.550;2022-09-12T12:43:40;12.30;;;2.10;;
16854;SDS011;8543;54.522;18.550;2022-09-12T12:46:07;5.00;;;2.60;;
16854;SDS011;8543;54.522;18.550;2022-09-12T12:48:42;5.10;;;2.50;;
16854;SDS011;8543;54.522;18.550;2022-09-12T12:51:13;4.80;;;1.90;;
16854;SDS011;8543;54.522;18.550;2022-09-12T12:53:50;4.20;;;1.80;;
16854;SDS011;8543;54.522;18.550;2022-09-12T12:59:15;6.10;;;2.00;;
16854;SDS011;8543;54.522;18.550;2022-09-12T13:01:44;2.70;;;1.70;;
16854;SDS011;8543;54.522;18.550;2022-09-12T13:04:11;4.80;;;2.80;;
16854;SDS011;8543;54.522;18.550;2022-09-12T13:06:40;6.40;;;2.40;;
16854;SDS011;8543;54.522;18.550;2022-09-12T13:11:43;4.50;;;2.00;;
16854;SDS011;8543;54.522;18.550;2022-09-12T13:16:58;4.20;;;2.00;;
16854;SDS011;8543;54.522;18.550;2022-09-12T13:19:27;4.40;;;2.30;;
16854;SDS011;8543;54.522;18.550;2022-09-12T13:21:54;4.50;;;2.10;;
16854;SDS011;8543;54.522;18.550;2022-09-12T13:24:21;4.90;;;1.70;;
16854;SDS011;8543;54.522;18.550;2022-09-12T13:26:47;5.20;;;2.20;;
16854;SDS011;8543;54.522;18.550;2022-09-12T13:29:14;3.50;;;1.60;;
16854;SDS011;8543;54.522;18.550;2022-09-12T13:31:42;5.20;;;1.80;;
16854;SDS011;8543;54.522;18.550;2022-09-12T13:34:09;3.50;;;1.70;;
16854;SDS011;8543;54.522;18.550;2022-09-12T13:36:53;4.10;;;1.70;;
16854;SDS011;8543;54.522;18.550;2022-09-12T13:42:35;4.80;;;2.50;;
16854;SDS011;8543;54.522;18.550;2022-09-12T13:47:44;6.30;;;2.30;;
16854;SDS011;8543;54.522;18.550;2022-09-12T13:52:53;4.90;;;2.30;;
16854;SDS011;8543;54.522;18.550;2022-09-12T13:57:56;4.10;;;1.70;;
16854;SDS011;8543;54.522;18.550;2022-09-12T14:00:24;4.20;;;1.90;;
16854;SDS011;8543;54.522;18.550;2022-09-12T14:02:49;2.80;;;1.60;;
16854;SDS011;8543;54.522;18.550;2022-09-12T14:05:35;3.90;;;1.90;;
16854;SDS011;8543;54.522;18.550;2022-09-12T14:08:04;7.10;;;2.80;;
16854;SDS011;8543;54.522;18.550;2022-09-12T14:10:39;4.70;;;1.90;;
16854;SDS011;8543;54.522;18.550;2022-09-12T14:13:17;6.30;;;1.90;;
16854;SDS011;8543;54.522;18.550;2022-09-12T14:15:50;3.80;;;1.70;;
16854;SDS011;8543;54.522;18.550;2022-09-12T14:18:29;3.90;;;2.20;;
16854;SDS011;8543;54.522;18.550;2022-09-12T14:21:00;6.40;;;2.90;;
16854;SDS011;8543;54.522;18.550;2022-09-12T14:23:32;4.00;;;2.00;;
16854;SDS011;8543;54.522;18.550;2022-09-12T14:26:01;10.70;;;2.30;;
16854;SDS011;8543;54.522;18.550;2022-09-12T14:28:29;4.20;;;2.00;;
16854;SDS011;8543;54.522;18.550;2022-09-12T14:33:25;5.30;;;1.90;;
16854;SDS011;8543;54.522;18.550;2022-09-12T14:36:05;5.10;;;1.80;;
16854;SDS011;8543;54.522;18.550;2022-09-12T14:38:34;7.30;;;2.30;;
16854;SDS011;8543;54.522;18.550;2022-09-12T14:41:03;3.70;;;1.90;;
16854;SDS011;8543;54.522;18.550;2022-09-12T14:43:32;3.60;;;2.00;;
16854;SDS011;8543;54.522;18.550;2022-09-12T14:48:29;4.90;;;2.00;;
16854;SDS011;8543;54.522;18.550;2022-09-12T14:51:01;4.10;;;1.70;;
16854;SDS011;8543;54.522;18.550;2022-09-12T14:53:32;3.40;;;1.80;;
16854;SDS011;8543;54.522;18.550;2022-09-12T14:58:31;5.50;;;1.90;;
16854;SDS011;8543;54.522;18.550;2022-09-12T15:01:01;4.50;;;1.80;;
16854;SDS011;8543;54.522;18.550;2022-09-12T15:03:29;4.30;;;1.80;;
16854;SDS011;8543;54.522;18.550;2022-09-12T15:08:44;3.90;;;1.60;;
16854;SDS011;8543;54.522;18.550;2022-09-12T15:11:09;5.80;;;1.70;;
16854;SDS011;8543;54.522;18.550;2022-09-12T15:13:38;3.40;;;2.10;;
16854;SDS011;8543;54.522;18.550;2022-09-12T15:16:09;4.10;;;2.00;;
16854;SDS011;8543;54.522;18.550;2022-09-12T15:18:35;3.60;;;1.60;;
16854;SDS011;8543;54.522;18.550;2022-09-12T15:21:01;3.70;;;1.80;;
16854;SDS011;8543;54.522;18.550;2022-09-12T15:26:08;3.40;;;1.80;;
16854;SDS011;8543;54.522;18.550;2022-09-12T15:28:38;4.50;;;1.80;;
16854;SDS011;8543;54.522;18.550;2022-09-12T15:31:46;4.40;;;1.90;;
16854;SDS011;8543;54.522;18.550;2022-09-12T15:33:53;2.70;;;1.80;;
16854;SDS011;8543;54.522;18.550;2022-09-12T15:36:20;4.80;;;2.10;;
16854;SDS011;8543;54.522;18.550;2022-09-12T15:38:47;4.20;;;1.90;;
16854;SDS011;8543;54.522;18.550;2022-09-12T15:41:23;9.60;;;2.20;;
16854;SDS011;8543;54.522;18.550;2022-09-12T15:43:56;4.30;;;1.90;;
16854;SDS011;8543;54.522;18.550;2022-09-12T15:46:22;5.50;;;2.00;;
16854;SDS011;8543;54.522;18.550;2022-09-12T15:48:47;4.00;;;2.20;;
16854;SDS011;8543;54.522;18.550;2022-09-12T15:51:13;6.00;;;2.30;;
16854;SDS011;8543;54.522;18.550;2022-09-12T15:53:43;6.20;;;2.60;;
16854;SDS011;8543;54.522;18.550;2022-09-12T15:56:09;4.70;;;2.10;;
16854;SDS011;8543;54.522;18.550;2022-09-12T15:58:35;5.20;;;2.20;;
16854;SDS011;8543;54.522;18.550;2022-09-12T16:01:02;4.80;;;2.10;;
16854;SDS011;8543;54.522;18.550;2022-09-12T16:03:28;5.10;;;2.60;;
16854;SDS011;8543;54.522;18.550;2022-09-12T16:05:55;3.80;;;2.00;;
16854;SDS011;8543;54.522;18.550;2022-09-12T16:08:21;4.00;;;2.30;;
16854;SDS011;8543;54.522;18.550;2022-09-12T16:10:47;5.30;;;2.40;;
16854;SDS011;8543;54.522;18.550;2022-09-12T16:13:15;6.00;;;2.20;;
16854;SDS011;8543;54.522;18.550;2022-09-12T16:15:40;4.40;;;2.20;;
16854;SDS011;8543;54.522;18.550;2022-09-12T16:18:06;4.30;;;2.10;;
16854;SDS011;8543;54.522;18.550;2022-09-12T16:20:31;3.80;;;2.20;;
16854;SDS011;8543;54.522;18.550;2022-09-12T16:22:57;6.00;;;2.60;;
16854;SDS011;8543;54.522;18.550;2022-09-12T16:25:22;3.80;;;2.20;;
16854;SDS011;8543;54.522;18.550;2022-09-12T16:27:49;4.90;;;2.20;;
16854;SDS011;8543;54.522;18.550;2022-09-12T16:30:14;5.70;;;2.40;;
16854;SDS011;8543;54.522;18.550;2022-09-12T16:32:40;4.60;;;2.00;;
16854;SDS011;8543;54.522;18.550;2022-09-12T16:35:05;3.60;;;2.00;;
16854;SDS011;8543;54.522;18.550;2022-09-12T16:37:31;6.20;;;2.60;;
16854;SDS011;8543;54.522;18.550;2022-09-12T16:39:58;4.50;;;2.40;;
16854;SDS011;8543;54.522;18.550;2022-09-12T16:42:24;4.60;;;2.30;;
16854;SDS011;8543;54.522;18.550;2022-09-12T16:44:49;4.70;;;2.30;;
16854;SDS011;8543;54.522;18.550;2022-09-12T16:47:15;6.50;;;2.60;;
16854;SDS011;8543;54.522;18.550;2022-09-12T16:49:40;4.20;;;2.40;;
16854;SDS011;8543;54.522;18.550;2022-09-12T16:52:06;5.90;;;3.10;;
16854;SDS011;8543;54.522;18.550;2022-09-12T16:54:32;5.70;;;2.80;;
16854;SDS011;8543;54.522;18.550;2022-09-12T16:56:57;8.80;;;3.40;;
16854;SDS011;8543;54.522;18.550;2022-09-12T16:59:22;4.70;;;2.40;;
16854;SDS011;8543;54.522;18.550;2022-09-12T17:01:48;5.80;;;3.10;;
16854;SDS011;8543;54.522;18.550;2022-09-12T17:04:13;8.20;;;2.80;;
16854;SDS011;8543;54.522;18.550;2022-09-12T17:06:39;6.60;;;3.10;;
16854;SDS011;8543;54.522;18.550;2022-09-12T17:09:05;5.80;;;2.70;;
16854;SDS011;8543;54.522;18.550;2022-09-12T17:11:32;5.20;;;3.00;;
16854;SDS011;8543;54.522;18.550;2022-09-12T17:14:00;6.60;;;2.70;;
16854;SDS011;8543;54.522;18.550;2022-09-12T17:16:26;5.60;;;2.60;;
16854;SDS011;8543;54.522;18.550;2022-09-12T17:18:52;8.30;;;2.20;;
16854;SDS011;8543;54.522;18.550;2022-09-12T17:21:18;6.20;;;2.60;;
16854;SDS011;8543;54.522;18.550;2022-09-12T17:23:45;4.30;;;2.40;;
16854;SDS011;8543;54.522;18.550;2022-09-12T17:26:10;4.70;;;2.70;;
16854;SDS011;8543;54.522;18.550;2022-09-12T17:28:36;7.40;;;3.50;;
16854;SDS011;8543;54.522;18.550;2022-09-12T17:31:04;6.30;;;3.20;;
16854;SDS011;8543;54.522;18.550;2022-09-12T17:33:31;10.70;;;3.80;;
16854;SDS011;8543;54.522;18.550;2022-09-12T17:36:00;12.00;;;3.80;;